createdAt,value
2018-04-10T00:01:31.070Z,94127
2018-04-10T00:04:01.759Z,94125
2018-04-10T00:06:32.470Z,94120
2018-04-10T00:09:02.421Z,94115
2018-04-10T00:11:32.401Z,94121
2018-04-10T00:14:02.322Z,94121
2018-04-10T00:16:33.061Z,94115
2018-04-10T00:19:03.006Z,94122
2018-04-10T00:21:33.730Z,94120
2018-04-10T00:24:03.721Z,94120
2018-04-10T00:26:33.709Z,94122
2018-04-10T00:29:03.694Z,94127
2018-04-10T00:31:34.501Z,94129
2018-04-10T00:34:05.282Z,94132
2018-04-10T00:36:36.021Z,94134
2018-04-10T00:39:06.092Z,94137
2018-04-10T00:41:36.919Z,94141
2018-04-10T00:44:06.922Z,94154
2018-04-10T00:46:37.708Z,94152
2018-04-10T00:49:08.442Z,94150
2018-04-10T00:51:39.161Z,94156
2018-04-10T00:54:09.909Z,94145
2018-04-10T00:56:40.704Z,94141
2018-04-10T00:59:11.470Z,94133
2018-04-10T01:01:42.202Z,94129
2018-04-10T01:04:12.961Z,94130
2018-04-10T01:06:42.921Z,94129
2018-04-10T01:09:13.658Z,94137
2018-04-10T01:11:44.449Z,94142
2018-04-10T01:14:14.429Z,94140
2018-04-10T01:16:45.161Z,94135
2018-04-10T01:19:15.242Z,94137
2018-04-10T01:21:45.181Z,94127
2018-04-10T01:24:16.041Z,94130
2018-04-10T01:26:46.081Z,94140
2018-04-10T01:29:16.042Z,94132
2018-04-10T01:31:45.977Z,94127
2018-04-10T01:34:16.725Z,94125
2018-04-10T01:36:47.447Z,94125
2018-04-10T01:39:17.462Z,94132
2018-04-10T01:41:47.489Z,94134
2018-04-10T01:44:17.449Z,94136
2018-04-10T01:46:47.462Z,94142
2018-04-10T01:49:17.421Z,94141
2018-04-10T01:51:48.206Z,94139
2018-04-10T01:54:18.124Z,94139
2018-04-10T01:56:48.048Z,94135
2018-04-10T01:59:18.002Z,94135
2018-04-10T02:01:48.882Z,94137
2018-04-10T02:04:19.906Z,94141
2018-04-10T02:06:50.747Z,94144
2018-04-10T02:11:56.412Z,94145
2018-04-10T02:14:27.241Z,94145
2018-04-10T02:16:57.981Z,94147
2018-04-10T02:19:27.930Z,94146
2018-04-10T02:21:57.905Z,94146
2018-04-10T02:24:28.664Z,94148
2018-04-10T02:26:58.602Z,94145
2018-04-10T02:29:28.574Z,94149
2018-04-10T02:31:59.370Z,94145
2018-04-10T02:34:30.141Z,94144
2018-04-10T02:37:00.925Z,94142
2018-04-10T02:39:31.829Z,94143
2018-04-10T02:42:01.849Z,94139
2018-04-10T02:44:31.830Z,94140
2018-04-10T02:47:02.591Z,94141
2018-04-10T02:49:32.529Z,94131
2018-04-10T02:52:02.501Z,94130
2018-04-10T02:54:33.200Z,94126
2018-04-10T02:57:03.155Z,94131
2018-04-10T02:59:33.889Z,94127
2018-04-10T03:02:04.681Z,94127
2018-04-10T03:04:35.445Z,94126
2018-04-10T03:07:06.169Z,94125
2018-04-10T03:09:36.921Z,94128
2018-04-10T03:12:06.922Z,94121
2018-04-10T03:14:37.709Z,94115
2018-04-10T03:17:07.661Z,94115
2018-04-10T03:19:38.401Z,94114
2018-04-10T03:22:08.329Z,94118
2018-04-10T03:24:39.040Z,94118
2018-04-10T03:27:09.921Z,94122
2018-04-10T03:29:40.769Z,94110
2018-04-10T03:32:10.750Z,94106
2018-04-10T03:34:41.482Z,94106
2018-04-10T03:37:12.221Z,94104
2018-04-10T03:39:42.189Z,94103
2018-04-10T03:42:12.141Z,94103
2018-04-10T03:44:42.909Z,94093
2018-04-10T03:47:12.881Z,94090
2018-04-10T03:49:42.835Z,94094
2018-04-10T03:52:13.572Z,94096
2018-04-10T03:54:44.709Z,94088
2018-04-10T03:57:14.669Z,94087
2018-04-10T03:59:44.621Z,94086
2018-04-10T04:02:15.361Z,94083
2018-04-10T04:04:45.357Z,94086
2018-04-10T04:07:16.350Z,94073
2018-04-10T04:09:46.301Z,94075
2018-04-10T04:12:17.073Z,94075
2018-04-10T04:14:47.863Z,94077
2018-04-10T04:17:34.261Z,94081
2018-04-10T04:20:21.945Z,94080
2018-04-10T04:22:52.644Z,94082
2018-04-10T04:25:23.349Z,94083
2018-04-10T04:27:53.321Z,94077
2018-04-10T04:30:24.885Z,94079
2018-04-10T04:32:54.829Z,94079
2018-04-10T04:35:24.781Z,94081
2018-04-10T04:37:55.501Z,94077
2018-04-10T04:40:26.361Z,94081
2018-04-10T04:42:57.180Z,94088
2018-04-10T04:45:27.881Z,94084
2018-04-10T04:47:58.602Z,94083
2018-04-10T04:50:29.650Z,94078
2018-04-10T04:52:59.562Z,94084
2018-04-10T04:55:29.461Z,94078
2018-04-10T04:57:59.402Z,94077
2018-04-10T05:00:29.354Z,94080
2018-04-10T05:03:00.882Z,94074
2018-04-10T05:05:31.602Z,94071
2018-04-10T05:08:03.265Z,94072
2018-04-10T05:10:34.029Z,94065
2018-04-10T05:13:04.745Z,94070
2018-04-10T05:15:35.590Z,94067
2018-04-10T05:18:06.309Z,94064
2018-04-10T05:20:36.221Z,94065
2018-04-10T05:23:07.141Z,94074
2018-04-10T05:25:37.037Z,94072
2018-04-10T05:28:07.917Z,94067
2018-04-10T05:30:38.670Z,94065
2018-04-10T05:33:09.421Z,94068
2018-04-10T05:35:40.111Z,94062
2018-04-10T05:38:10.858Z,94057
2018-04-10T05:40:41.600Z,94062
2018-04-10T05:43:12.346Z,94057
2018-04-10T05:45:43.097Z,94057
2018-04-10T05:48:13.105Z,94063
2018-04-10T05:50:43.832Z,94065
2018-04-10T05:53:13.803Z,94070
2018-04-10T05:55:43.782Z,94074
2018-04-10T05:58:14.984Z,94071
2018-04-10T06:00:44.934Z,94069
2018-04-10T06:03:15.670Z,94065
2018-04-10T06:05:46.456Z,94064
2018-04-10T06:08:17.610Z,94065
2018-04-10T06:10:48.307Z,94061
2018-04-10T06:13:19.291Z,94057
2018-04-10T06:15:49.330Z,94065
2018-04-10T06:18:20.142Z,94064
2018-04-10T06:20:51.433Z,94062
2018-04-10T06:23:21.544Z,94068
2018-04-10T06:25:52.566Z,94064
2018-04-10T06:28:23.305Z,94061
2018-04-10T06:30:54.029Z,94053
2018-04-10T06:33:25.062Z,94057
2018-04-10T06:35:57.565Z,94059
2018-04-10T06:38:28.770Z,94056
2018-04-10T06:40:59.451Z,94058
2018-04-10T06:43:29.409Z,94064
2018-04-10T06:46:00.453Z,94064
2018-04-10T06:48:30.451Z,94070
2018-04-10T06:51:01.210Z,94067
2018-04-10T06:53:31.949Z,94063
2018-04-10T06:56:02.682Z,94058
2018-04-10T06:58:33.434Z,94058
2018-04-10T07:01:03.455Z,94054
2018-04-10T07:03:33.398Z,94056
2018-04-10T07:06:04.246Z,94057
2018-04-10T07:08:34.205Z,94060
2018-04-10T07:11:05.664Z,94057
2018-04-10T07:13:36.688Z,94060
2018-04-10T07:16:06.693Z,94059
2018-04-10T07:18:37.461Z,94064
2018-04-10T07:21:08.174Z,94064
2018-04-10T07:23:38.634Z,94069
2018-04-10T07:26:08.597Z,94067
2018-04-10T07:28:39.302Z,94069
2018-04-10T07:31:09.261Z,94066
2018-04-10T07:33:39.181Z,94066
2018-04-10T07:36:10.035Z,94066
2018-04-10T07:38:40.882Z,94065
2018-04-10T07:41:10.817Z,94065
2018-04-10T07:43:41.604Z,94063
2018-04-10T07:46:12.358Z,94066
2018-04-10T07:48:42.350Z,94071
2018-04-10T07:51:13.050Z,94074
2018-04-10T07:53:43.002Z,94079
2018-04-10T07:56:13.711Z,94083
2018-04-10T07:58:44.548Z,94086
2018-04-10T08:01:15.331Z,94090
2018-04-10T08:03:45.290Z,94087
2018-04-10T08:06:15.268Z,94084
2018-04-10T08:08:45.233Z,94088
2018-04-10T08:11:16.012Z,94083
2018-04-10T08:13:45.990Z,94084
2018-04-10T08:16:16.736Z,94086
2018-04-10T08:18:47.670Z,94086
2018-04-10T08:21:18.735Z,94078
2018-04-10T08:23:49.594Z,94071
2018-04-10T08:26:19.570Z,94067
2018-04-10T08:28:49.594Z,94064
2018-04-10T08:31:19.633Z,94060
2018-04-10T08:33:49.707Z,94053
2018-04-10T08:36:19.702Z,94056
2018-04-10T08:38:50.470Z,94055
2018-04-10T08:41:21.269Z,94053
2018-04-10T08:43:52.130Z,94050
2018-04-10T08:46:22.902Z,94044
2018-04-10T08:48:54.134Z,94043
2018-04-10T08:51:25.024Z,94041
2018-04-10T08:53:56.782Z,94039
2018-04-10T08:56:27.838Z,94029
2018-04-10T08:58:57.858Z,94026
2018-04-10T09:01:28.706Z,94017
2018-04-10T09:03:59.470Z,94016
2018-04-10T09:06:29.517Z,94009
2018-04-10T09:08:59.512Z,94004
2018-04-10T09:11:29.531Z,93994
2018-04-10T09:13:59.534Z,93989
2018-04-10T09:16:29.517Z,93991
2018-04-10T09:19:00.280Z,93984
2018-04-10T09:21:31.632Z,93978
2018-04-10T09:24:02.679Z,93978
2018-04-10T09:26:32.649Z,93973
2018-04-10T09:29:02.956Z,93974
2018-04-10T09:31:33.713Z,93971
2018-04-10T09:34:04.440Z,93970
2018-04-10T09:36:35.207Z,93967
2018-04-10T09:39:05.233Z,93962
2018-04-10T09:41:35.215Z,93966
2018-04-10T09:44:05.196Z,93966
2018-04-10T09:46:36.276Z,93968
2018-04-10T09:49:06.994Z,93965
2018-04-10T09:51:37.731Z,93961
2018-04-10T09:54:07.661Z,93965
2018-04-10T09:56:38.371Z,93967
2018-04-10T09:59:08.279Z,93965
2018-04-10T10:01:39.017Z,93964
2018-04-10T10:04:09.741Z,93964
2018-04-10T10:06:40.527Z,93958
2018-04-10T10:09:11.227Z,93957
2018-04-10T10:11:42.003Z,93958
2018-04-10T10:14:13.179Z,93951
2018-04-10T10:16:43.184Z,93956
2018-04-10T10:19:13.162Z,93948
2018-04-10T10:21:43.873Z,93955
2018-04-10T10:24:14.609Z,93954
2018-04-10T10:26:45.377Z,93950
2018-04-10T10:29:15.336Z,93954
2018-04-10T10:31:46.147Z,93956
2018-04-10T10:34:16.151Z,93939
2018-04-10T10:36:46.145Z,93942
2018-04-10T10:39:16.129Z,93934
2018-04-10T10:41:46.911Z,93941
2018-04-10T10:44:17.983Z,93934
2018-04-10T10:46:48.880Z,93931
2018-04-10T10:49:19.976Z,93919
2018-04-10T10:51:50.784Z,93915
2018-04-10T10:54:20.753Z,93911
2018-04-10T10:56:51.465Z,93912
2018-04-10T10:59:22.219Z,93905
2018-04-10T11:01:52.957Z,93904
2018-04-10T11:04:23.753Z,93900
2018-04-10T11:06:54.565Z,93897
2018-04-10T11:09:24.516Z,93896
2018-04-10T11:12:14.117Z,93893
2018-04-10T11:14:45.029Z,93897
2018-04-10T11:17:15.986Z,93883
2018-04-10T11:19:46.917Z,93889
2018-04-10T11:22:17.066Z,93887
2018-04-10T11:24:47.369Z,93887
2018-04-10T11:27:18.230Z,93883
2018-04-10T11:29:49.762Z,93888
2018-04-10T11:32:21.079Z,93887
2018-04-10T11:34:51.967Z,93889
2018-04-10T11:37:21.989Z,93883
2018-04-10T11:39:52.997Z,93890
2018-04-10T11:42:23.750Z,93877
2018-04-10T11:44:54.565Z,93890
2018-04-10T11:47:25.402Z,93880
2018-04-10T11:49:55.550Z,93896
2018-04-10T11:52:26.648Z,93883
2018-04-10T11:54:57.914Z,93879
2018-04-10T11:57:28.638Z,93876
2018-04-10T11:59:58.637Z,93880
2018-04-10T12:02:29.438Z,93870
2018-04-10T12:04:59.437Z,93862
2018-04-10T12:07:29.831Z,93856
2018-04-10T12:09:59.806Z,93857
2018-04-10T12:12:29.869Z,93860
2018-04-10T12:15:00.841Z,93860
2018-04-10T12:17:30.909Z,93861
2018-04-10T12:20:01.806Z,93863
2018-04-10T12:22:31.990Z,93864
2018-04-10T12:25:02.850Z,93863
2018-04-10T12:27:32.913Z,93864
2018-04-10T12:30:02.829Z,93869
2018-04-10T12:32:33.718Z,93864
2018-04-10T12:35:03.838Z,93867
2018-04-10T12:37:33.894Z,93861
2018-04-10T12:40:04.837Z,93864
2018-04-10T12:42:34.910Z,93863
2018-04-10T12:45:05.990Z,93871
2018-04-10T12:47:36.070Z,93864
2018-04-10T12:50:06.998Z,93875
2018-04-10T12:52:37.842Z,93855
2018-04-10T12:55:08.790Z,93863
2018-04-10T12:57:38.765Z,93864
2018-04-10T13:00:09.905Z,93868
2018-04-10T13:02:40.731Z,93866
2018-04-10T13:05:11.600Z,93858
2018-04-10T13:07:42.478Z,93858
2018-04-10T13:10:12.551Z,93860
2018-04-10T13:12:42.682Z,93863
2018-04-10T13:15:13.543Z,93853
2018-04-10T13:17:44.470Z,93869
2018-04-10T13:20:15.770Z,93863
2018-04-10T13:22:45.997Z,93864
2018-04-10T13:25:17.103Z,93868
2018-04-10T13:27:48.239Z,93865
2018-04-10T13:30:19.636Z,93868
2018-04-10T13:32:50.964Z,93860
2018-04-10T13:35:22.164Z,93864
2018-04-10T13:37:53.085Z,93862
2018-04-10T13:40:23.228Z,93855
2018-04-10T13:42:54.157Z,93853
2018-04-10T13:45:25.077Z,93856
2018-04-10T13:47:55.147Z,93856
2018-04-10T13:50:26.043Z,93866
2018-04-10T13:52:57.018Z,93869
2018-04-10T13:55:28.037Z,93868
2018-04-10T13:57:58.917Z,93874
2018-04-10T14:00:28.971Z,93899
2018-04-10T14:03:00.237Z,93877
2018-04-10T14:05:30.325Z,93892
2018-04-10T14:08:00.565Z,93876
2018-04-10T14:10:32.433Z,93883
2018-04-10T14:13:03.967Z,93873
2018-04-10T14:15:34.919Z,93908
2018-04-10T14:18:05.037Z,93889
2018-04-10T14:20:35.880Z,93887
2018-04-10T14:23:06.162Z,93898
2018-04-10T14:25:36.320Z,93894
2018-04-10T14:28:06.455Z,93890
2018-04-10T14:30:36.477Z,93915
2018-04-10T14:33:06.412Z,93904
2018-04-10T14:35:37.318Z,93904
2018-04-10T14:38:07.341Z,93894
2018-04-10T14:40:37.488Z,93894
2018-04-10T14:43:08.389Z,93899
2018-04-10T14:45:38.486Z,93905
2018-04-10T14:48:08.570Z,93904
2018-04-10T14:50:39.589Z,93901
2018-04-10T14:53:10.311Z,93902
2018-04-10T14:55:41.357Z,93909
2018-04-10T14:58:11.393Z,93909
2018-04-10T15:00:42.695Z,93903
2018-04-10T15:03:12.752Z,93911
2018-04-10T15:05:42.843Z,93910
2018-04-10T15:08:12.921Z,93896
2018-04-10T15:10:44.112Z,93907
2018-04-10T15:13:14.724Z,93903
2018-04-10T15:15:45.833Z,93917
2018-04-10T15:18:16.837Z,93916
2018-04-10T15:20:47.017Z,93916
2018-04-10T15:23:17.279Z,93912
2018-04-10T15:25:48.565Z,93914
2018-04-10T15:28:19.800Z,93920
2018-04-10T15:30:50.036Z,93927
2018-04-10T15:33:20.158Z,93918
2018-04-10T15:35:50.557Z,93917
2018-04-10T15:38:20.669Z,93916
2018-04-10T15:40:50.797Z,93917
2018-04-10T15:43:20.952Z,93921
2018-04-10T15:45:51.015Z,93920
2018-04-10T15:48:21.064Z,93913
2018-04-10T15:50:51.137Z,93913
2018-04-10T15:53:21.262Z,93906
2018-04-10T15:55:51.517Z,93913
2018-04-10T15:58:21.592Z,93924
2018-04-10T16:00:51.566Z,93919
2018-04-10T16:03:21.714Z,93917
2018-04-10T16:05:51.830Z,93913
2018-04-10T16:08:21.892Z,93909
2018-04-10T16:10:52.787Z,93898
2018-04-10T16:13:23.072Z,93906
2018-04-10T16:15:53.166Z,93901
2018-04-10T16:18:23.458Z,93913
2018-04-10T16:20:57.201Z,93904
2018-04-10T16:23:27.354Z,93909
2018-04-10T16:25:57.386Z,93912
2018-04-10T16:28:28.495Z,93922
2018-04-10T16:30:59.257Z,93920
2018-04-10T16:33:29.260Z,93929
2018-04-10T16:36:00.029Z,93924
2018-04-10T16:38:30.029Z,93926
2018-04-10T16:41:00.948Z,93920
2018-04-10T16:43:31.017Z,93936
2018-04-10T16:46:01.025Z,93927
2018-04-10T16:48:31.037Z,93929
2018-04-10T16:51:01.057Z,93923
2018-04-10T16:53:31.083Z,93932
2018-04-10T16:56:01.172Z,93933
2018-04-10T16:58:32.011Z,93928
2018-04-10T17:01:02.097Z,93944
2018-04-10T17:03:32.168Z,93951
2018-04-10T17:06:03.047Z,93947
2018-04-10T17:08:33.200Z,93941
2018-04-10T17:11:03.262Z,93949
2018-04-10T17:13:34.117Z,93957
2018-04-10T17:16:04.969Z,93959
2018-04-10T17:18:36.008Z,93970
2018-04-10T17:21:06.164Z,93961
2018-04-10T17:23:36.284Z,93965
2018-04-10T17:26:06.412Z,93969
2018-04-10T17:28:36.488Z,93980
2018-04-10T17:31:06.625Z,93985
2018-04-10T17:33:37.600Z,93992
2018-04-10T17:36:07.693Z,93985
2018-04-10T17:38:37.670Z,93983
2018-04-10T17:41:08.453Z,93995
2018-04-10T17:43:39.365Z,93997
2018-04-10T17:46:09.728Z,93987
2018-04-10T17:48:40.578Z,93987
2018-04-10T17:51:11.806Z,93991
2018-04-10T17:53:41.877Z,93991
2018-04-10T17:56:12.721Z,93996
2018-04-10T17:58:43.645Z,93996
2018-04-10T18:01:14.409Z,93996
2018-04-10T18:03:45.318Z,94003
2018-04-10T18:06:16.165Z,94022
2018-04-10T18:08:46.278Z,94023
2018-04-10T18:11:17.130Z,94026
2018-04-10T18:13:47.277Z,94019
2018-04-10T18:16:18.121Z,94032
2018-04-10T18:18:48.460Z,94028
2018-04-10T18:21:18.690Z,94035
2018-04-10T18:23:49.799Z,94032
2018-04-10T18:26:21.502Z,94037
2018-04-10T18:28:51.688Z,94051
2018-04-10T18:31:21.717Z,94050
2018-04-10T18:33:52.567Z,94055
2018-04-10T18:36:23.364Z,94065
2018-04-10T18:38:54.446Z,94065
2018-04-10T18:41:24.458Z,94069
2018-04-10T18:43:55.258Z,94070
2018-04-10T18:46:26.581Z,94072
2018-04-10T18:48:56.729Z,94075
2018-04-10T18:51:27.576Z,94071
2018-04-10T18:53:57.624Z,94075
2018-04-10T18:56:27.642Z,94078
2018-04-10T18:58:58.360Z,94078
2018-04-10T19:01:29.424Z,94076
2018-04-10T19:04:00.327Z,94087
2018-04-10T19:06:31.671Z,94084
2018-04-10T19:09:02.770Z,94085
2018-04-10T19:11:33.002Z,94086
2018-04-10T19:14:02.957Z,94082
2018-04-10T19:16:33.073Z,94090
2018-04-10T19:19:03.026Z,94096
2018-04-10T19:21:33.049Z,94090
2018-04-10T19:24:03.988Z,94089
2018-04-10T19:26:35.045Z,94097
2018-04-10T19:29:05.115Z,94101
2018-04-10T19:31:35.133Z,94102
2018-04-10T19:34:05.933Z,94105
2018-04-10T19:36:36.750Z,94106
2018-04-10T19:39:06.758Z,94113
2018-04-10T19:41:36.848Z,94111
2018-04-10T19:44:08.630Z,94110
2018-04-10T19:46:38.686Z,94111
2018-04-10T19:49:10.273Z,94107
2018-04-10T19:51:41.299Z,94109
2018-04-10T19:54:11.529Z,94101
2018-04-10T19:56:42.916Z,94096
2018-04-10T19:59:13.760Z,94097
2018-04-10T20:01:44.565Z,94098
2018-04-10T20:04:15.563Z,94097
2018-04-10T20:06:45.645Z,94102
2018-04-10T20:09:17.570Z,94107
2018-04-10T20:11:47.762Z,94104
2018-04-10T20:14:18.597Z,94108
2018-04-10T20:16:48.597Z,94113
2018-04-10T20:19:18.692Z,94117
2018-04-10T20:21:48.727Z,94110
2018-04-10T20:24:18.966Z,94114
2018-04-10T20:26:49.245Z,94122
2018-04-10T20:29:20.098Z,94125
2018-04-10T20:31:50.832Z,94127
2018-04-10T20:34:21.734Z,94126
2018-04-10T20:36:51.849Z,94123
2018-04-10T20:39:22.681Z,94119
2018-04-10T20:41:53.523Z,94123
2018-04-10T20:44:24.325Z,94124
2018-04-10T20:46:55.397Z,94128
2018-04-10T20:49:25.598Z,94128
2018-04-10T20:51:55.648Z,94130
2018-04-10T20:54:26.475Z,94131
2018-04-10T20:56:57.245Z,94131
2018-04-10T20:59:27.369Z,94129
2018-04-10T21:01:58.210Z,94134
2018-04-10T21:04:28.285Z,94140
2018-04-10T21:06:59.249Z,94137
2018-04-10T21:09:31.154Z,94141
2018-04-10T21:12:02.022Z,94138
2018-04-10T21:14:32.923Z,94142
2018-04-10T21:17:02.919Z,94146
2018-04-10T21:19:33.865Z,94154
2018-04-10T21:22:04.047Z,94148
2018-04-10T21:24:34.889Z,94157
2018-04-10T21:27:05.006Z,94156
2018-04-10T21:29:35.125Z,94156
2018-04-10T21:32:06.015Z,94162
2018-04-10T21:34:36.977Z,94166
2018-04-10T21:37:07.841Z,94165
2018-04-10T21:39:38.924Z,94160
2018-04-10T21:42:08.964Z,94169
2018-04-10T21:44:39.809Z,94166
2018-04-10T21:47:10.646Z,94158
2018-04-10T21:49:41.491Z,94169
2018-04-10T21:52:11.569Z,94167
2018-04-10T21:54:42.529Z,94177
2018-04-10T21:57:12.649Z,94176
2018-04-10T21:59:42.810Z,94169
2018-04-10T22:02:12.935Z,94171
2018-04-10T22:04:43.011Z,94173
2018-04-10T22:07:13.089Z,94171
2018-04-10T22:09:44.081Z,94182
2018-04-10T22:12:14.967Z,94179
2018-04-10T22:14:45.040Z,94169
2018-04-10T22:17:15.833Z,94170
2018-04-10T22:19:45.972Z,94174
2018-04-10T22:22:16.773Z,94172
2018-04-10T22:24:47.285Z,94171
2018-04-10T22:27:17.378Z,94183
2018-04-10T22:29:47.442Z,94188
2018-04-10T22:32:18.412Z,94189
2018-04-10T22:34:48.452Z,94190
2018-04-10T22:37:18.489Z,94188
2018-04-10T22:39:49.465Z,94188
2018-04-10T22:42:20.411Z,94187
2018-04-10T22:44:51.417Z,94191
2018-04-10T22:47:22.404Z,94186
2018-04-10T22:49:52.569Z,94192
2018-04-10T22:52:23.580Z,94196
2018-04-10T22:54:53.761Z,94202
2018-04-10T22:57:23.854Z,94204
2018-04-10T22:59:54.717Z,94209
2018-04-10T23:02:25.569Z,94208
2018-04-10T23:04:55.703Z,94205
2018-04-10T23:07:26.498Z,94210
2018-04-10T23:09:56.629Z,94207
2018-04-10T23:12:27.545Z,94209
2018-04-10T23:14:57.637Z,94213
2018-04-10T23:17:28.433Z,94219
2018-04-10T23:19:59.322Z,94221
2018-04-10T23:22:29.525Z,94225
2018-04-10T23:24:59.681Z,94226
2018-04-10T23:27:29.890Z,94223
2018-04-10T23:30:00.685Z,94223
2018-04-10T23:32:31.671Z,94226
2018-04-10T23:35:01.779Z,94228
2018-04-10T23:37:32.730Z,94225
2018-04-10T23:40:02.818Z,94236
2018-04-10T23:42:32.973Z,94239
2018-04-10T23:45:03.142Z,94243
2018-04-10T23:47:34.016Z,94243
2018-04-10T23:50:04.856Z,94242
2018-04-10T23:52:35.935Z,94252
2018-04-10T23:55:05.968Z,94256
2018-04-10T23:57:36.030Z,94251
